Terminal Aerodrome Forecast
Issued by NWS

Home | Current Version | Previous Version | Text Only | Print | Product List | Glossary On
Versions: 1 2 3 4 5 6 7 8 9 10 11 12 13 14 15 16 17 18 19 20 21
000
FTUS41 KBOX 211123
TAFHYA
TAF
KHYA 211123Z 2112/2212 27005KT P6SM SCT250
     FM211500 27010KT P6SM FEW250
     FM211700 23010KT P6SM FEW250
     FM221000 22007KT P6SM SCT008=

USA.gov is the U.S. government's official web portal to all federal, state and local government web resources and services.